sensor_id;sensor_type;location;lat;lon;timestamp;P1;durP1;ratioP1;P2;durP2;ratioP2
9280;SDS011;4679;47.966;7.958;2022-09-23T05:41:47;4.80;;;2.07;;
9280;SDS011;4679;47.966;7.958;2022-09-23T05:43:49;5.23;;;2.47;;
9280;SDS011;4679;47.966;7.958;2022-09-23T05:45:53;1.80;;;1.70;;
9280;SDS011;4679;47.966;7.958;2022-09-23T05:48:02;2.33;;;1.50;;
9280;SDS011;4679;47.966;7.958;2022-09-23T05:50:04;1.40;;;1.30;;
9280;SDS011;4679;47.966;7.958;2022-09-23T05:52:06;2.60;;;1.27;;
9280;SDS011;4679;47.966;7.958;2022-09-23T05:54:08;1.00;;;1.00;;
9280;SDS011;4679;47.966;7.958;2022-09-23T05:56:10;2.33;;;1.23;;
9280;SDS011;4679;47.966;7.958;2022-09-23T05:58:13;2.80;;;1.73;;
9280;SDS011;4679;47.966;7.958;2022-09-23T06:00:15;1.70;;;1.60;;
9280;SDS011;4679;47.966;7.958;2022-09-23T06:02:17;1.60;;;1.50;;
9280;SDS011;4679;47.966;7.958;2022-09-23T06:04:19;3.43;;;1.23;;
9280;SDS011;4679;47.966;7.958;2022-09-23T06:06:22;3.30;;;1.60;;
9280;SDS011;4679;47.966;7.958;2022-09-23T06:08:27;1.87;;;1.60;;
9280;SDS011;4679;47.966;7.958;2022-09-23T06:10:29;2.17;;;1.80;;
9280;SDS011;4679;47.966;7.958;2022-09-23T06:12:30;1.63;;;1.53;;
9280;SDS011;4679;47.966;7.958;2022-09-23T06:14:33;2.13;;;1.73;;
9280;SDS011;4679;47.966;7.958;2022-09-23T06:16:36;4.10;;;1.70;;
9280;SDS011;4679;47.966;7.958;2022-09-23T06:18:38;2.13;;;1.87;;
9280;SDS011;4679;47.966;7.958;2022-09-23T06:20:40;1.60;;;1.50;;
9280;SDS011;4679;47.966;7.958;2022-09-23T06:22:42;2.90;;;1.30;;
9280;SDS011;4679;47.966;7.958;2022-09-23T06:24:43;1.30;;;1.20;;
9280;SDS011;4679;47.966;7.958;2022-09-23T06:26:45;2.40;;;1.40;;
9280;SDS011;4679;47.966;7.958;2022-09-23T06:28:48;2.43;;;1.33;;
9280;SDS011;4679;47.966;7.958;2022-09-23T06:30:54;1.30;;;1.20;;
9280;SDS011;4679;47.966;7.958;2022-09-23T06:32:57;2.23;;;1.27;;
9280;SDS011;4679;47.966;7.958;2022-09-23T06:34:59;1.40;;;1.30;;
9280;SDS011;4679;47.966;7.958;2022-09-23T06:37:00;1.97;;;1.40;;
9280;SDS011;4679;47.966;7.958;2022-09-23T06:39:02;3.73;;;1.73;;
9280;SDS011;4679;47.966;7.958;2022-09-23T06:41:04;2.70;;;1.70;;
9280;SDS011;4679;47.966;7.958;2022-09-23T06:43:07;1.47;;;1.30;;
9280;SDS011;4679;47.966;7.958;2022-09-23T06:45:10;1.70;;;1.40;;
9280;SDS011;4679;47.966;7.958;2022-09-23T06:47:15;1.40;;;1.30;;
9280;SDS011;4679;47.966;7.958;2022-09-23T06:49:17;4.03;;;1.53;;
9280;SDS011;4679;47.966;7.958;2022-09-23T06:51:19;1.53;;;1.43;;
9280;SDS011;4679;47.966;7.958;2022-09-23T06:53:21;1.77;;;1.67;;
9280;SDS011;4679;47.966;7.958;2022-09-23T06:55:23;2.37;;;1.77;;
9280;SDS011;4679;47.966;7.958;2022-09-23T06:57:27;1.93;;;1.43;;
9280;SDS011;4679;47.966;7.958;2022-09-23T06:59:29;3.03;;;1.47;;
9280;SDS011;4679;47.966;7.958;2022-09-23T07:01:31;2.57;;;1.60;;
9280;SDS011;4679;47.966;7.958;2022-09-23T07:03:34;1.40;;;1.30;;
9280;SDS011;4679;47.966;7.958;2022-09-23T07:05:37;3.13;;;1.40;;
9280;SDS011;4679;47.966;7.958;2022-09-23T07:07:39;1.60;;;1.50;;
9280;SDS011;4679;47.966;7.958;2022-09-23T07:09:40;1.50;;;1.40;;
9280;SDS011;4679;47.966;7.958;2022-09-23T07:11:42;1.70;;;1.60;;
9280;SDS011;4679;47.966;7.958;2022-09-23T07:13:44;2.73;;;1.73;;
9280;SDS011;4679;47.966;7.958;2022-09-23T07:15:47;1.80;;;1.70;;
9280;SDS011;4679;47.966;7.958;2022-09-23T07:17:49;6.00;;;1.40;;
9280;SDS011;4679;47.966;7.958;2022-09-23T07:19:52;1.93;;;1.43;;
9280;SDS011;4679;47.966;7.958;2022-09-23T07:21:55;2.03;;;1.20;;
9280;SDS011;4679;47.966;7.958;2022-09-23T07:23:57;1.50;;;1.40;;
9280;SDS011;4679;47.966;7.958;2022-09-23T07:25:58;1.47;;;1.37;;
9280;SDS011;4679;47.966;7.958;2022-09-23T07:28:01;2.23;;;1.50;;
9280;SDS011;4679;47.966;7.958;2022-09-23T07:30:02;1.93;;;1.50;;
9280;SDS011;4679;47.966;7.958;2022-09-23T07:32:05;2.77;;;1.20;;
9280;SDS011;4679;47.966;7.958;2022-09-23T07:34:07;2.87;;;1.33;;
9280;SDS011;4679;47.966;7.958;2022-09-23T07:36:12;1.43;;;1.33;;
9280;SDS011;4679;47.966;7.958;2022-09-23T07:38:15;3.87;;;1.53;;
9280;SDS011;4679;47.966;7.958;2022-09-23T07:40:17;2.47;;;1.20;;
9280;SDS011;4679;47.966;7.958;2022-09-23T07:42:19;1.50;;;1.40;;
9280;SDS011;4679;47.966;7.958;2022-09-23T07:44:21;1.40;;;1.30;;
9280;SDS011;4679;47.966;7.958;2022-09-23T07:46:23;1.20;;;1.20;;
9280;SDS011;4679;47.966;7.958;2022-09-23T07:48:26;2.90;;;1.43;;
9280;SDS011;4679;47.966;7.958;2022-09-23T07:50:29;3.07;;;1.63;;
9280;SDS011;4679;47.966;7.958;2022-09-23T07:52:32;1.43;;;1.33;;
9280;SDS011;4679;47.966;7.958;2022-09-23T07:54:36;1.90;;;1.50;;
9280;SDS011;4679;47.966;7.958;2022-09-23T07:56:38;2.07;;;1.20;;
9280;SDS011;4679;47.966;7.958;2022-09-23T07:58:41;1.30;;;1.20;;
9280;SDS011;4679;47.966;7.958;2022-09-23T08:00:42;2.63;;;1.47;;
9280;SDS011;4679;47.966;7.958;2022-09-23T08:02:44;1.70;;;1.43;;
9280;SDS011;4679;47.966;7.958;2022-09-23T08:04:47;1.23;;;1.13;;
9280;SDS011;4679;47.966;7.958;2022-09-23T08:06:50;1.50;;;1.40;;
9280;SDS011;4679;47.966;7.958;2022-09-23T08:08:55;3.03;;;1.30;;
9280;SDS011;4679;47.966;7.958;2022-09-23T08:10:59;1.40;;;1.30;;
9280;SDS011;4679;47.966;7.958;2022-09-23T08:13:02;1.87;;;1.43;;
9280;SDS011;4679;47.966;7.958;2022-09-23T08:15:04;1.63;;;1.40;;
9280;SDS011;4679;47.966;7.958;2022-09-23T08:17:06;1.70;;;1.47;;
9280;SDS011;4679;47.966;7.958;2022-09-23T08:19:08;1.37;;;1.27;;
9280;SDS011;4679;47.966;7.958;2022-09-23T08:21:10;1.97;;;1.03;;
9280;SDS011;4679;47.966;7.958;2022-09-23T08:23:13;2.97;;;1.60;;
9280;SDS011;4679;47.966;7.958;2022-09-23T08:25:17;1.83;;;1.60;;
9280;SDS011;4679;47.966;7.958;2022-09-23T08:27:19;1.40;;;1.30;;
9280;SDS011;4679;47.966;7.958;2022-09-23T08:29:21;1.33;;;1.23;;
9280;SDS011;4679;47.966;7.958;2022-09-23T08:31:24;4.33;;;1.60;;
9280;SDS011;4679;47.966;7.958;2022-09-23T08:33:26;3.63;;;1.50;;
9280;SDS011;4679;47.966;7.958;2022-09-23T08:35:28;1.53;;;1.37;;
9280;SDS011;4679;47.966;7.958;2022-09-23T08:37:30;1.97;;;1.20;;
9280;SDS011;4679;47.966;7.958;2022-09-23T08:39:32;1.40;;;1.30;;
9280;SDS011;4679;47.966;7.958;2022-09-23T08:41:36;3.00;;;1.20;;
9280;SDS011;4679;47.966;7.958;2022-09-23T08:43:44;1.57;;;1.20;;
9280;SDS011;4679;47.966;7.958;2022-09-23T08:45:48;1.53;;;1.43;;
9280;SDS011;4679;47.966;7.958;2022-09-23T08:47:53;1.77;;;1.20;;
9280;SDS011;4679;47.966;7.958;2022-09-23T08:50:02;1.53;;;1.10;;
9280;SDS011;4679;47.966;7.958;2022-09-23T08:52:08;1.20;;;1.10;;
9280;SDS011;4679;47.966;7.958;2022-09-23T08:54:16;1.30;;;1.00;;
9280;SDS011;4679;47.966;7.958;2022-09-23T08:56:19;1.10;;;1.00;;
9280;SDS011;4679;47.966;7.958;2022-09-23T08:58:28;1.57;;;1.30;;
9280;SDS011;4679;47.966;7.958;2022-09-23T09:00:41;2.17;;;1.07;;
9280;SDS011;4679;47.966;7.958;2022-09-23T09:02:44;1.60;;;1.00;;
9280;SDS011;4679;47.966;7.958;2022-09-23T09:04:46;1.70;;;1.00;;
9280;SDS011;4679;47.966;7.958;2022-09-23T09:06:53;2.70;;;1.20;;
9280;SDS011;4679;47.966;7.958;2022-09-23T09:08:59;1.20;;;1.20;;
9280;SDS011;4679;47.966;7.958;2022-09-23T09:11:02;1.20;;;1.10;;
9280;SDS011;4679;47.966;7.958;2022-09-23T09:13:08;2.30;;;1.10;;
9280;SDS011;4679;47.966;7.958;2022-09-23T09:15:25;1.80;;;1.30;;
9280;SDS011;4679;47.966;7.958;2022-09-23T09:17:28;2.60;;;1.27;;
9280;SDS011;4679;47.966;7.958;2022-09-23T09:19:44;2.27;;;1.40;;
9280;SDS011;4679;47.966;7.958;2022-09-23T09:21:52;1.30;;;1.20;;
9280;SDS011;4679;47.966;7.958;2022-09-23T09:23:56;2.60;;;1.10;;
9280;SDS011;4679;47.966;7.958;2022-09-23T09:25:59;3.63;;;1.10;;
9280;SDS011;4679;47.966;7.958;2022-09-23T09:28:02;2.17;;;1.13;;
9280;SDS011;4679;47.966;7.958;2022-09-23T09:30:11;3.23;;;1.03;;
9280;SDS011;4679;47.966;7.958;2022-09-23T09:32:17;1.50;;;1.30;;
9280;SDS011;4679;47.966;7.958;2022-09-23T09:34:29;1.50;;;1.00;;
9280;SDS011;4679;47.966;7.958;2022-09-23T09:36:42;2.17;;;1.20;;
9280;SDS011;4679;47.966;7.958;2022-09-23T09:38:46;1.00;;;1.00;;
9280;SDS011;4679;47.966;7.958;2022-09-23T09:40:50;1.03;;;0.90;;
9280;SDS011;4679;47.966;7.958;2022-09-23T09:42:52;1.20;;;1.00;;
9280;SDS011;4679;47.966;7.958;2022-09-23T09:44:55;2.73;;;1.47;;
9280;SDS011;4679;47.966;7.958;2022-09-23T09:47:08;3.53;;;1.10;;
9280;SDS011;4679;47.966;7.958;2022-09-23T09:49:23;1.67;;;1.10;;
9280;SDS011;4679;47.966;7.958;2022-09-23T09:51:30;1.67;;;1.10;;
9280;SDS011;4679;47.966;7.958;2022-09-23T09:53:32;2.07;;;1.00;;
9280;SDS011;4679;47.966;7.958;2022-09-23T09:55:34;2.03;;;1.10;;
9280;SDS011;4679;47.966;7.958;2022-09-23T09:57:37;2.07;;;1.17;;
9280;SDS011;4679;47.966;7.958;2022-09-23T09:59:43;3.33;;;1.00;;
9280;SDS011;4679;47.966;7.958;2022-09-23T10:01:45;1.47;;;1.10;;
9280;SDS011;4679;47.966;7.958;2022-09-23T10:03:46;1.27;;;1.17;;
9280;SDS011;4679;47.966;7.958;2022-09-23T10:05:52;2.80;;;0.97;;
9280;SDS011;4679;47.966;7.958;2022-09-23T10:07:59;1.43;;;1.10;;
9280;SDS011;4679;47.966;7.958;2022-09-23T10:10:22;1.20;;;1.10;;
9280;SDS011;4679;47.966;7.958;2022-09-23T10:12:26;1.93;;;1.00;;
9280;SDS011;4679;47.966;7.958;2022-09-23T10:14:28;1.63;;;1.00;;
9280;SDS011;4679;47.966;7.958;2022-09-23T10:16:31;1.80;;;0.93;;
9280;SDS011;4679;47.966;7.958;2022-09-23T10:18:35;1.60;;;1.07;;
9280;SDS011;4679;47.966;7.958;2022-09-23T10:20:38;1.27;;;1.00;;
9280;SDS011;4679;47.966;7.958;2022-09-23T10:22:41;1.00;;;0.90;;
9280;SDS011;4679;47.966;7.958;2022-09-23T10:24:46;0.97;;;0.93;;
9280;SDS011;4679;47.966;7.958;2022-09-23T10:26:51;1.60;;;1.10;;
9280;SDS011;4679;47.966;7.958;2022-09-23T10:28:57;1.37;;;0.90;;
9280;SDS011;4679;47.966;7.958;2022-09-23T10:31:05;1.53;;;0.97;;
9280;SDS011;4679;47.966;7.958;2022-09-23T10:33:23;2.70;;;1.00;;
9280;SDS011;4679;47.966;7.958;2022-09-23T10:35:27;1.67;;;1.10;;
9280;SDS011;4679;47.966;7.958;2022-09-23T10:37:33;2.63;;;0.83;;
9280;SDS011;4679;47.966;7.958;2022-09-23T10:39:39;2.03;;;1.00;;
9280;SDS011;4679;47.966;7.958;2022-09-23T10:42:00;1.37;;;1.10;;
9280;SDS011;4679;47.966;7.958;2022-09-23T10:44:32;0.97;;;0.90;;
9280;SDS011;4679;47.966;7.958;2022-09-23T10:47:00;2.30;;;1.00;;
9280;SDS011;4679;47.966;7.958;2022-09-23T10:49:14;3.60;;;1.13;;
9280;SDS011;4679;47.966;7.958;2022-09-23T10:51:28;1.77;;;0.90;;
9280;SDS011;4679;47.966;7.958;2022-09-23T10:53:41;3.53;;;1.00;;
9280;SDS011;4679;47.966;7.958;2022-09-23T10:56:01;1.47;;;1.17;;
9280;SDS011;4679;47.966;7.958;2022-09-23T10:58:13;1.10;;;1.00;;
9280;SDS011;4679;47.966;7.958;2022-09-23T11:00:32;1.30;;;1.20;;
9280;SDS011;4679;47.966;7.958;2022-09-23T11:02:45;1.40;;;1.10;;
9280;SDS011;4679;47.966;7.958;2022-09-23T11:05:04;0.77;;;0.77;;
9280;SDS011;4679;47.966;7.958;2022-09-23T11:07:26;1.90;;;0.90;;
9280;SDS011;4679;47.966;7.958;2022-09-23T11:09:37;1.43;;;0.80;;
9280;SDS011;4679;47.966;7.958;2022-09-23T11:11:58;1.40;;;0.80;;
9280;SDS011;4679;47.966;7.958;2022-09-23T11:14:15;0.80;;;0.80;;
9280;SDS011;4679;47.966;7.958;2022-09-23T11:16:34;1.00;;;0.70;;
9280;SDS011;4679;47.966;7.958;2022-09-23T11:18:49;0.77;;;0.70;;
9280;SDS011;4679;47.966;7.958;2022-09-23T11:21:58;1.20;;;0.70;;
9280;SDS011;4679;47.966;7.958;2022-09-23T11:24:13;1.27;;;0.73;;
9280;SDS011;4679;47.966;7.958;2022-09-23T11:26:39;0.80;;;0.80;;
9280;SDS011;4679;47.966;7.958;2022-09-23T11:28:51;1.43;;;0.70;;
9280;SDS011;4679;47.966;7.958;2022-09-23T11:31:05;2.97;;;0.80;;
9280;SDS011;4679;47.966;7.958;2022-09-23T11:33:22;3.03;;;0.90;;
9280;SDS011;4679;47.966;7.958;2022-09-23T11:35:35;2.60;;;0.87;;
9280;SDS011;4679;47.966;7.958;2022-09-23T11:37:45;1.17;;;0.83;;
9280;SDS011;4679;47.966;7.958;2022-09-23T11:39:51;1.33;;;0.70;;
9280;SDS011;4679;47.966;7.958;2022-09-23T11:42:00;1.17;;;1.10;;
9280;SDS011;4679;47.966;7.958;2022-09-23T11:44:13;1.60;;;0.60;;
9280;SDS011;4679;47.966;7.958;2022-09-23T11:46:22;1.50;;;0.93;;
9280;SDS011;4679;47.966;7.958;2022-09-23T11:48:32;2.67;;;0.70;;
9280;SDS011;4679;47.966;7.958;2022-09-23T11:50:43;1.27;;;0.60;;
9280;SDS011;4679;47.966;7.958;2022-09-23T11:52:50;1.43;;;0.60;;
9280;SDS011;4679;47.966;7.958;2022-09-23T11:54:59;0.87;;;0.70;;
9280;SDS011;4679;47.966;7.958;2022-09-23T11:57:08;1.33;;;0.70;;
9280;SDS011;4679;47.966;7.958;2022-09-23T11:59:17;2.40;;;0.70;;
9280;SDS011;4679;47.966;7.958;2022-09-23T12:01:30;2.10;;;0.60;;
9280;SDS011;4679;47.966;7.958;2022-09-23T12:03:38;0.60;;;0.60;;
9280;SDS011;4679;47.966;7.958;2022-09-23T12:05:46;0.53;;;0.53;;
9280;SDS011;4679;47.966;7.958;2022-09-23T12:07:53;0.90;;;0.70;;
9280;SDS011;4679;47.966;7.958;2022-09-23T12:10:01;1.53;;;0.60;;
9280;SDS011;4679;47.966;7.958;2022-09-23T12:12:05;1.17;;;0.50;;
9280;SDS011;4679;47.966;7.958;2022-09-23T12:14:19;1.23;;;0.50;;
9280;SDS011;4679;47.966;7.958;2022-09-23T12:16:34;1.10;;;0.53;;
9280;SDS011;4679;47.966;7.958;2022-09-23T12:18:51;1.17;;;0.70;;
9280;SDS011;4679;47.966;7.958;2022-09-23T12:21:06;1.05;;;0.70;;
9280;SDS011;4679;47.966;7.958;2022-09-23T12:23:24;2.15;;;0.70;;
9280;SDS011;4679;47.966;7.958;2022-09-23T12:25:39;1.42;;;0.60;;
9280;SDS011;4679;47.966;7.958;2022-09-23T12:27:46;3.33;;;0.73;;
9280;SDS011;4679;47.966;7.958;2022-09-23T12:29:55;1.48;;;0.82;;
9280;SDS011;4679;47.966;7.958;2022-09-23T12:31:59;2.20;;;0.75;;
9280;SDS011;4679;47.966;7.958;2022-09-23T12:34:07;0.75;;;0.50;;
9280;SDS011;4679;47.966;7.958;2022-09-23T12:36:23;1.75;;;0.50;;
9280;SDS011;4679;47.966;7.958;2022-09-23T12:38:30;1.00;;;0.90;;
9280;SDS011;4679;47.966;7.958;2022-09-23T12:40:35;1.40;;;0.60;;
9280;SDS011;4679;47.966;7.958;2022-09-23T12:42:42;1.85;;;0.60;;
9280;SDS011;4679;47.966;7.958;2022-09-23T12:44:47;0.60;;;0.60;;
9280;SDS011;4679;47.966;7.958;2022-09-23T12:46:51;0.75;;;0.60;;
9280;SDS011;4679;47.966;7.958;2022-09-23T12:49:34;1.67;;;0.70;;
9280;SDS011;4679;47.966;7.958;2022-09-23T12:51:37;1.20;;;0.57;;
9280;SDS011;4679;47.966;7.958;2022-09-23T12:53:52;1.00;;;0.70;;
9280;SDS011;4679;47.966;7.958;2022-09-23T12:55:55;0.68;;;0.60;;
9280;SDS011;4679;47.966;7.958;2022-09-23T12:57:59;3.08;;;0.63;;
9280;SDS011;4679;47.966;7.958;2022-09-23T13:00:13;0.88;;;0.70;;
9280;SDS011;4679;47.966;7.958;2022-09-23T13:02:26;1.13;;;0.70;;
9280;SDS011;4679;47.966;7.958;2022-09-23T13:04:41;0.80;;;0.80;;
9280;SDS011;4679;47.966;7.958;2022-09-23T13:07:04;1.10;;;0.60;;
9280;SDS011;4679;47.966;7.958;2022-09-23T13:09:12;0.73;;;0.70;;
9280;SDS011;4679;47.966;7.958;2022-09-23T13:11:17;2.85;;;0.80;;
9280;SDS011;4679;47.966;7.958;2022-09-23T13:13:24;1.15;;;0.73;;
9280;SDS011;4679;47.966;7.958;2022-09-23T13:15:31;0.73;;;0.70;;
9280;SDS011;4679;47.966;7.958;2022-09-23T13:17:35;0.77;;;0.73;;
9280;SDS011;4679;47.966;7.958;2022-09-23T13:19:42;3.72;;;0.80;;
9280;SDS011;4679;47.966;7.958;2022-09-23T13:24:17;2.20;;;0.77;;
9280;SDS011;4679;47.966;7.958;2022-09-23T13:26:20;0.90;;;0.70;;
9280;SDS011;4679;47.966;7.958;2022-09-23T13:28:30;0.70;;;0.70;;
9280;SDS011;4679;47.966;7.958;2022-09-23T13:30:33;1.13;;;0.80;;
9280;SDS011;4679;47.966;7.958;2022-09-23T13:32:36;1.75;;;0.70;;
9280;SDS011;4679;47.966;7.958;2022-09-23T13:34:41;0.68;;;0.68;;
9280;SDS011;4679;47.966;7.958;2022-09-23T13:36:46;2.28;;;0.73;;
9280;SDS011;4679;47.966;7.958;2022-09-23T13:38:49;1.85;;;0.80;;
9280;SDS011;4679;47.966;7.958;2022-09-23T13:40:52;0.80;;;0.80;;
9280;SDS011;4679;47.966;7.958;2022-09-23T13:42:55;1.73;;;0.80;;
9280;SDS011;4679;47.966;7.958;2022-09-23T13:44:59;0.70;;;0.70;;
9280;SDS011;4679;47.966;7.958;2022-09-23T13:47:01;0.90;;;0.90;;
9280;SDS011;4679;47.966;7.958;2022-09-23T13:49:03;0.70;;;0.70;;
9280;SDS011;4679;47.966;7.958;2022-09-23T13:51:07;1.63;;;0.80;;
9280;SDS011;4679;47.966;7.958;2022-09-23T13:53:11;2.17;;;1.00;;
9280;SDS011;4679;47.966;7.958;2022-09-23T13:55:24;0.97;;;0.80;;
9280;SDS011;4679;47.966;7.958;2022-09-23T13:57:32;1.67;;;0.87;;
9280;SDS011;4679;47.966;7.958;2022-09-23T13:59:35;2.00;;;0.87;;
9280;SDS011;4679;47.966;7.958;2022-09-23T14:01:38;0.90;;;0.80;;
9280;SDS011;4679;47.966;7.958;2022-09-23T14:03:40;1.87;;;1.20;;
9280;SDS011;4679;47.966;7.958;2022-09-23T14:05:43;1.43;;;0.83;;
9280;SDS011;4679;47.966;7.958;2022-09-23T14:07:45;2.28;;;0.80;;
9280;SDS011;4679;47.966;7.958;2022-09-23T14:09:48;0.80;;;0.80;;
9280;SDS011;4679;47.966;7.958;2022-09-23T14:11:51;1.90;;;0.83;;
9280;SDS011;4679;47.966;7.958;2022-09-23T14:13:55;1.60;;;0.90;;
9280;SDS011;4679;47.966;7.958;2022-09-23T14:15:58;1.53;;;0.60;;
9280;SDS011;4679;47.966;7.958;2022-09-23T14:18:02;0.80;;;0.80;;
9280;SDS011;4679;47.966;7.958;2022-09-23T14:20:11;1.93;;;0.87;;
9280;SDS011;4679;47.966;7.958;2022-09-23T14:22:21;2.40;;;0.90;;
9280;SDS011;4679;47.966;7.958;2022-09-23T14:24:28;0.80;;;0.80;;
9280;SDS011;4679;47.966;7.958;2022-09-23T14:26:32;1.23;;;1.10;;
9280;SDS011;4679;47.966;7.958;2022-09-23T14:28:34;0.80;;;0.70;;
9280;SDS011;4679;47.966;7.958;2022-09-23T14:30:37;2.33;;;0.80;;
9280;SDS011;4679;47.966;7.958;2022-09-23T14:32:39;0.70;;;0.70;;
9280;SDS011;4679;47.966;7.958;2022-09-23T14:34:42;1.03;;;0.80;;
9280;SDS011;4679;47.966;7.958;2022-09-23T14:36:45;1.00;;;0.90;;
9280;SDS011;4679;47.966;7.958;2022-09-23T14:39:04;1.17;;;0.77;;
9280;SDS011;4679;47.966;7.958;2022-09-23T14:41:14;1.60;;;0.80;;
9280;SDS011;4679;47.966;7.958;2022-09-23T14:43:21;0.77;;;0.77;;
9280;SDS011;4679;47.966;7.958;2022-09-23T14:45:25;1.07;;;0.70;;
9280;SDS011;4679;47.966;7.958;2022-09-23T14:47:32;1.80;;;0.77;;
9280;SDS011;4679;47.966;7.958;2022-09-23T14:49:35;1.20;;;0.70;;
9280;SDS011;4679;47.966;7.958;2022-09-23T14:51:57;5.00;;;0.73;;
9280;SDS011;4679;47.966;7.958;2022-09-23T14:56:27;1.03;;;0.80;;
9280;SDS011;4679;47.966;7.958;2022-09-23T14:58:43;1.20;;;0.80;;
9280;SDS011;4679;47.966;7.958;2022-09-23T15:00:50;1.80;;;0.90;;
9280;SDS011;4679;47.966;7.958;2022-09-23T15:02:57;2.10;;;1.00;;
9280;SDS011;4679;47.966;7.958;2022-09-23T15:05:17;1.83;;;0.80;;
9280;SDS011;4679;47.966;7.958;2022-09-23T15:07:20;2.40;;;1.00;;
9280;SDS011;4679;47.966;7.958;2022-09-23T15:09:24;4.20;;;1.00;;
9280;SDS011;4679;47.966;7.958;2022-09-23T15:11:28;1.23;;;0.97;;
9280;SDS011;4679;47.966;7.958;2022-09-23T15:13:31;1.37;;;0.70;;
9280;SDS011;4679;47.966;7.958;2022-09-23T15:15:36;1.53;;;1.00;;
9280;SDS011;4679;47.966;7.958;2022-09-23T15:17:38;8.13;;;0.90;;
9280;SDS011;4679;47.966;7.958;2022-09-23T15:19:42;1.93;;;0.90;;
9280;SDS011;4679;47.966;7.958;2022-09-23T15:21:44;1.43;;;0.90;;
9280;SDS011;4679;47.966;7.958;2022-09-23T15:23:47;2.03;;;0.80;;
9280;SDS011;4679;47.966;7.958;2022-09-23T15:25:51;0.93;;;0.87;;
9280;SDS011;4679;47.966;7.958;2022-09-23T15:27:57;1.33;;;0.90;;
9280;SDS011;4679;47.966;7.958;2022-09-23T15:30:08;2.03;;;0.77;;
9280;SDS011;4679;47.966;7.958;2022-09-23T15:32:14;1.20;;;1.00;;
9280;SDS011;4679;47.966;7.958;2022-09-23T15:34:16;2.00;;;0.70;;
9280;SDS011;4679;47.966;7.958;2022-09-23T15:36:22;3.73;;;0.90;;
9280;SDS011;4679;47.966;7.958;2022-09-23T15:38:25;1.27;;;1.13;;
9280;SDS011;4679;47.966;7.958;2022-09-23T15:40:28;2.50;;;1.00;;
9280;SDS011;4679;47.966;7.958;2022-09-23T15:42:31;0.70;;;0.70;;
9280;SDS011;4679;47.966;7.958;2022-09-23T15:44:32;1.10;;;0.97;;
9280;SDS011;4679;47.966;7.958;2022-09-23T15:46:34;1.53;;;0.80;;
9280;SDS011;4679;47.966;7.958;2022-09-23T15:48:37;2.80;;;0.80;;
9280;SDS011;4679;47.966;7.958;2022-09-23T15:50:42;1.43;;;1.07;;
9280;SDS011;4679;47.966;7.958;2022-09-23T15:52:46;1.17;;;0.80;;
9280;SDS011;4679;47.966;7.958;2022-09-23T15:54:47;1.83;;;0.70;;
9280;SDS011;4679;47.966;7.958;2022-09-23T15:56:49;2.33;;;0.87;;
9280;SDS011;4679;47.966;7.958;2022-09-23T15:58:51;2.13;;;0.90;;
9280;SDS011;4679;47.966;7.958;2022-09-23T16:00:53;1.73;;;0.90;;
9280;SDS011;4679;47.966;7.958;2022-09-23T16:02:56;2.00;;;0.80;;
9280;SDS011;4679;47.966;7.958;2022-09-23T16:04:58;0.90;;;0.90;;
9280;SDS011;4679;47.966;7.958;2022-09-23T16:07:07;2.77;;;0.70;;
9280;SDS011;4679;47.966;7.958;2022-09-23T16:09:14;1.37;;;0.93;;
9280;SDS011;4679;47.966;7.958;2022-09-23T16:11:16;0.80;;;0.80;;
9280;SDS011;4679;47.966;7.958;2022-09-23T16:13:20;2.10;;;0.80;;
9280;SDS011;4679;47.966;7.958;2022-09-23T16:15:22;2.57;;;0.90;;
9280;SDS011;4679;47.966;7.958;2022-09-23T16:17:24;2.97;;;1.00;;
9280;SDS011;4679;47.966;7.958;2022-09-23T16:19:28;1.23;;;0.83;;
9280;SDS011;4679;47.966;7.958;2022-09-23T16:21:32;1.23;;;0.93;;
9280;SDS011;4679;47.966;7.958;2022-09-23T16:23:40;1.27;;;0.70;;
9280;SDS011;4679;47.966;7.958;2022-09-23T16:25:47;2.80;;;1.00;;
9280;SDS011;4679;47.966;7.958;2022-09-23T16:27:49;2.53;;;0.80;;
9280;SDS011;4679;47.966;7.958;2022-09-23T16:29:52;1.77;;;1.00;;
9280;SDS011;4679;47.966;7.958;2022-09-23T16:31:55;1.30;;;1.20;;
9280;SDS011;4679;47.966;7.958;2022-09-23T16:33:57;1.27;;;0.80;;
9280;SDS011;4679;47.966;7.958;2022-09-23T16:36:01;2.60;;;1.00;;
9280;SDS011;4679;47.966;7.958;2022-09-23T16:38:03;1.17;;;1.17;;
9280;SDS011;4679;47.966;7.958;2022-09-23T16:40:05;3.27;;;1.03;;
9280;SDS011;4679;47.966;7.958;2022-09-23T16:42:10;2.47;;;1.00;;
9280;SDS011;4679;47.966;7.958;2022-09-23T16:44:12;1.10;;;0.80;;
9280;SDS011;4679;47.966;7.958;2022-09-23T16:46:16;2.60;;;1.03;;
9280;SDS011;4679;47.966;7.958;2022-09-23T16:48:18;4.83;;;1.10;;
9280;SDS011;4679;47.966;7.958;2022-09-23T16:50:21;1.07;;;0.97;;
9280;SDS011;4679;47.966;7.958;2022-09-23T16:52:23;3.20;;;1.10;;
9280;SDS011;4679;47.966;7.958;2022-09-23T16:54:25;3.93;;;1.03;;
9280;SDS011;4679;47.966;7.958;2022-09-23T16:56:27;1.53;;;0.90;;
9280;SDS011;4679;47.966;7.958;2022-09-23T16:58:31;4.10;;;1.67;;
9280;SDS011;4679;47.966;7.958;2022-09-23T17:00:33;4.40;;;2.30;;
9280;SDS011;4679;47.966;7.958;2022-09-23T17:02:52;3.47;;;1.97;;
9280;SDS011;4679;47.966;7.958;2022-09-23T17:05:11;2.00;;;1.57;;
9280;SDS011;4679;47.966;7.958;2022-09-23T17:07:15;3.97;;;1.87;;
9280;SDS011;4679;47.966;7.958;2022-09-23T17:09:17;1.60;;;1.30;;
9280;SDS011;4679;47.966;7.958;2022-09-23T17:11:20;4.40;;;2.17;;
9280;SDS011;4679;47.966;7.958;2022-09-23T17:13:22;3.73;;;1.30;;
9280;SDS011;4679;47.966;7.958;2022-09-23T17:15:26;2.13;;;1.50;;
9280;SDS011;4679;47.966;7.958;2022-09-23T17:17:28;2.77;;;2.27;;
9280;SDS011;4679;47.966;7.958;2022-09-23T17:19:30;1.93;;;1.73;;
9280;SDS011;4679;47.966;7.958;2022-09-23T17:21:33;3.63;;;2.03;;
9280;SDS011;4679;47.966;7.958;2022-09-23T17:23:35;3.17;;;1.93;;
9280;SDS011;4679;47.966;7.958;2022-09-23T17:25:37;3.63;;;2.13;;
9280;SDS011;4679;47.966;7.958;2022-09-23T17:27:38;2.63;;;1.83;;
9280;SDS011;4679;47.966;7.958;2022-09-23T17:29:40;1.90;;;1.70;;
9280;SDS011;4679;47.966;7.958;2022-09-23T17:31:45;3.40;;;1.70;;
9280;SDS011;4679;47.966;7.958;2022-09-23T17:33:46;3.20;;;1.60;;
9280;SDS011;4679;47.966;7.958;2022-09-23T17:35:48;1.77;;;1.60;;
9280;SDS011;4679;47.966;7.958;2022-09-23T17:37:51;2.00;;;1.53;;
9280;SDS011;4679;47.966;7.958;2022-09-23T17:39:53;1.97;;;1.70;;
9280;SDS011;4679;47.966;7.958;2022-09-23T17:41:55;2.60;;;1.47;;
9280;SDS011;4679;47.966;7.958;2022-09-23T17:43:57;3.13;;;1.70;;
9280;SDS011;4679;47.966;7.958;2022-09-23T17:46:00;3.60;;;2.00;;
9280;SDS011;4679;47.966;7.958;2022-09-23T17:48:08;2.70;;;2.50;;
9280;SDS011;4679;47.966;7.958;2022-09-23T17:50:10;7.60;;;3.30;;
9280;SDS011;4679;47.966;7.958;2022-09-23T17:52:13;2.30;;;2.10;;
9280;SDS011;4679;47.966;7.958;2022-09-23T17:54:15;2.40;;;2.20;;
9280;SDS011;4679;47.966;7.958;2022-09-23T17:56:17;2.37;;;1.97;;
9280;SDS011;4679;47.966;7.958;2022-09-23T17:58:22;2.57;;;2.20;;
9280;SDS011;4679;47.966;7.958;2022-09-23T18:00:25;2.97;;;1.73;;
9280;SDS011;4679;47.966;7.958;2022-09-23T18:02:27;2.53;;;1.77;;
9280;SDS011;4679;47.966;7.958;2022-09-23T18:04:30;1.80;;;1.40;;
9280;SDS011;4679;47.966;7.958;2022-09-23T18:06:32;2.53;;;1.50;;
9280;SDS011;4679;47.966;7.958;2022-09-23T18:08:35;2.40;;;1.77;;
9280;SDS011;4679;47.966;7.958;2022-09-23T18:10:37;3.63;;;1.60;;
9280;SDS011;4679;47.966;7.958;2022-09-23T18:12:39;3.00;;;1.87;;
9280;SDS011;4679;47.966;7.958;2022-09-23T18:14:41;1.93;;;1.63;;
9280;SDS011;4679;47.966;7.958;2022-09-23T18:16:45;1.70;;;1.50;;
9280;SDS011;4679;47.966;7.958;2022-09-23T18:18:48;3.27;;;1.63;;
9280;SDS011;4679;47.966;7.958;2022-09-23T18:20:52;1.73;;;1.63;;
9280;SDS011;4679;47.966;7.958;2022-09-23T18:22:59;2.27;;;1.80;;
9280;SDS011;4679;47.966;7.958;2022-09-23T18:25:01;1.93;;;1.30;;
9280;SDS011;4679;47.966;7.958;2022-09-23T18:27:03;3.07;;;1.90;;
9280;SDS011;4679;47.966;7.958;2022-09-23T18:29:05;3.30;;;1.90;;
9280;SDS011;4679;47.966;7.958;2022-09-23T18:31:07;2.70;;;1.50;;
9280;SDS011;4679;47.966;7.958;2022-09-23T18:33:09;2.40;;;1.83;;
9280;SDS011;4679;47.966;7.958;2022-09-23T18:35:14;5.67;;;2.07;;
9280;SDS011;4679;47.966;7.958;2022-09-23T18:37:17;3.93;;;2.17;;
9280;SDS011;4679;47.966;7.958;2022-09-23T18:39:19;4.27;;;1.90;;
9280;SDS011;4679;47.966;7.958;2022-09-23T18:41:20;6.93;;;5.13;;
9280;SDS011;4679;47.966;7.958;2022-09-23T18:43:22;4.27;;;3.50;;
9280;SDS011;4679;47.966;7.958;2022-09-23T18:45:25;3.90;;;3.13;;
9280;SDS011;4679;47.966;7.958;2022-09-23T18:47:27;4.50;;;2.63;;